Time;durP1;ratioP1;P1;durP2;ratioP2;P2;SDS_P1;SDS_P2;PMS_P1;PMS_P2;Temp;Humidity;BMP_temperature;BMP_pressure;BME280_temperature;BME280_humidity;BME280_pressure;Samples;Min_cycle;Max_cycle;Signal;HPM_P1;HPM_P2
2022/12/28 00:00:49;;;;;;;1999.90;999.90;;;10.30;99.90;;;;;;5010784;28;20073;-91
2022/12/28 00:03:14;;;;;;;1999.90;999.90;;;13.10;99.90;;;;;;5012198;28;20462;-84
2022/12/28 00:05:40;;;;;;;1999.90;999.90;;;9.00;99.90;;;;;;5033327;28;20100;-84
2022/12/28 00:08:06;;;;;;;1999.90;999.90;;;;;;;;;;5031333;28;20041;-89
2022/12/28 00:10:32;;;;;;;1999.90;999.90;;;9.90;99.90;;;;;;5025374;28;20048;-84
2022/12/28 00:12:58;;;;;;;1999.90;999.90;;;;;;;;;;5023167;28;20041;-85
2022/12/28 00:15:24;;;;;;;1999.90;609.40;;;12.10;99.90;;;;;;5023097;28;20512;-80
2022/12/28 00:17:49;;;;;;;1999.90;782.67;;;8.30;99.90;;;;;;4991854;28;20041;-79
2022/12/28 00:20:15;;;;;;;1999.90;999.90;;;11.70;99.90;;;;;;5022781;28;20042;-78
2022/12/28 00:22:41;;;;;;;1999.90;517.50;;;10.30;99.90;;;;;;5024475;28;20440;-78
2022/12/28 00:25:07;;;;;;;1999.90;752.38;;;9.30;99.90;;;;;;5023449;28;20061;-80
2022/12/28 00:27:33;;;;;;;1504.60;186.30;;;9.60;99.90;;;;;;5022799;28;20049;-79
2022/12/28 00:29:58;;;;;;;1999.90;999.90;;;11.40;99.90;;;;;;5005784;28;20038;-75
2022/12/28 00:32:24;;;;;;;1999.90;999.90;;;9.00;99.90;;;;;;5027263;28;20462;-80
2022/12/28 00:34:50;;;;;;;1320.03;344.45;;;11.60;99.90;;;;;;5029338;28;20037;-77
2022/12/28 00:37:15;;;;;;;1999.90;704.92;;;13.00;99.90;;;;;;5031203;28;20053;-76
2022/12/28 00:39:41;;;;;;;1999.90;999.90;;;10.30;99.90;;;;;;5031692;28;20066;-77
2022/12/28 00:42:08;;;;;;;1999.90;999.90;;;10.60;99.90;;;;;;5033881;28;20048;-76
2022/12/28 00:44:34;;;;;;;1999.90;448.23;;;;;;;;;;5013422;28;20072;-76
2022/12/28 00:46:59;;;;;;;1999.90;648.40;;;8.70;99.90;;;;;;5032333;28;20436;-76
2022/12/28 00:49:25;;;;;;;1999.90;660.42;;;8.80;99.90;;;;;;5028102;28;20041;-76
2022/12/28 00:51:51;;;;;;;1999.90;999.90;;;10.10;99.90;;;;;;5014580;28;20541;-76
2022/12/28 00:54:17;;;;;;;1999.90;999.90;;;;;;;;;;5031293;28;20037;-79
2022/12/28 00:56:43;;;;;;;1969.63;800.60;;;;;;;;;;5030520;28;20482;-76
2022/12/28 00:59:09;;;;;;;1999.90;723.05;;;9.30;99.90;;;;;;5026747;28;20490;-77
2022/12/28 01:01:34;;;;;;;1999.90;999.90;;;7.90;99.90;;;;;;5013018;28;20092;-76
2022/12/28 01:04:00;;;;;;;1999.90;999.90;;;11.90;99.90;;;;;;5028710;28;20041;-82
2022/12/28 01:06:27;;;;;;;1999.90;999.90;;;11.30;99.90;;;;;;4996701;28;20081;-77
2022/12/28 01:08:53;;;;;;;1935.03;614.10;;;10.80;99.90;;;;;;5029018;28;20121;-78
2022/12/28 01:11:24;;;;;;;1999.90;999.90;;;10.70;99.90;;;;;;5029102;28;20460;-77
2022/12/28 01:13:52;;;;;;;1999.90;999.90;;;10.50;99.90;;;;;;5030111;28;20470;-76
2022/12/28 01:16:17;;;;;;;1999.90;792.17;;;10.80;99.90;;;;;;5030565;28;20041;-75
2022/12/28 01:18:45;;;;;;;1999.90;999.90;;;10.30;99.90;;;;;;5025547;28;20052;-75
2022/12/28 01:21:16;;;;;;;1999.90;999.90;;;9.40;99.90;;;;;;5010710;28;20041;-86
2022/12/28 01:23:46;;;;;;;1999.90;999.90;;;8.90;99.90;;;;;;5024058;28;20045;-75
2022/12/28 01:26:12;;;;;;;1933.88;783.90;;;9.50;99.90;;;;;;5008310;28;20056;-76
2022/12/28 01:28:38;;;;;;;1999.90;999.90;;;8.90;99.90;;;;;;5008629;28;20405;-76
2022/12/28 01:31:10;;;;;;;1999.90;464.17;;;10.40;99.90;;;;;;5010904;28;20106;-75
2022/12/28 01:33:36;;;;;;;1999.90;807.78;;;;;;;;;;5026503;28;20041;-75
2022/12/28 01:36:11;;;;;;;1999.90;999.90;;;10.50;99.90;;;;;;5026401;28;20053;-82
2022/12/28 01:38:37;;;;;;;1999.90;659.95;;;9.80;99.90;;;;;;5024023;28;20107;-75
2022/12/28 01:41:06;;;;;;;1999.90;999.90;;;10.40;99.90;;;;;;5012578;28;20065;-76
2022/12/28 01:43:47;;;;;;;1999.90;999.90;;;9.10;99.90;;;;;;5026779;28;20504;-74
2022/12/28 01:46:19;;;;;;;1999.90;999.90;;;12.00;99.90;;;;;;5025514;28;20049;-79
2022/12/28 01:48:49;;;;;;;1999.90;999.90;;;8.40;99.90;;;;;;5018661;28;20115;-76
2022/12/28 01:51:17;;;;;;;1999.90;999.90;;;10.90;99.90;;;;;;5021785;28;20052;-75
2022/12/28 01:53:43;;;;;;;1809.20;768.70;;;10.40;99.90;;;;;;5005559;28;20441;-84
2022/12/28 01:56:09;;;;;;;1999.90;999.90;;;8.90;99.90;;;;;;5022188;28;20095;-84
2022/12/28 01:58:35;;;;;;;1999.90;999.90;;;10.50;99.90;;;;;;5024755;28;20073;-75
2022/12/28 02:01:02;;;;;;;1999.90;999.90;;;9.10;99.90;;;;;;5023123;28;20524;-75
2022/12/28 02:03:31;;;;;;;1999.90;999.90;;;10.70;99.90;;;;;;5023268;28;20079;-74
2022/12/28 02:06:00;;;;;;;1331.50;134.02;;;13.80;99.90;;;;;;5027320;28;21479;-75
2022/12/28 02:09:02;;;;;;;1999.90;999.90;;;14.00;99.90;;;;;;5001853;28;20049;-76
2022/12/28 02:11:29;;;;;;;1999.90;999.90;;;10.20;99.90;;;;;;5016463;28;20095;-76
2022/12/28 02:13:56;;;;;;;1999.90;795.13;;;10.70;99.90;;;;;;5003440;28;20076;-75
2022/12/28 02:16:22;;;;;;;1999.90;999.90;;;10.90;99.90;;;;;;4987745;28;20064;-75
2022/12/28 02:18:48;;;;;;;1999.90;999.90;;;12.40;99.90;;;;;;5024713;28;20041;-75
2022/12/28 02:21:31;;;;;;;1882.90;543.00;;;11.20;99.90;;;;;;5011798;28;20128;-75
2022/12/28 02:24:06;;;;;;;1999.90;999.90;;;9.90;99.90;;;;;;5022921;28;20049;-75
2022/12/28 02:26:44;;;;;;;1999.90;999.90;;;9.10;99.90;;;;;;5030186;28;20177;-75
2022/12/28 02:29:31;;;;;;;1736.75;776.88;;;10.70;99.90;;;;;;5024741;28;20046;-75
2022/12/28 02:32:29;;;;;;;1999.90;486.92;;;11.20;99.90;;;;;;5020814;28;20049;-76
2022/12/28 02:35:03;;;;;;;1999.90;999.90;;;12.30;99.90;;;;;;5023251;28;20037;-75
2022/12/28 02:37:39;;;;;;;1999.90;999.90;;;9.80;99.90;;;;;;5025294;28;20150;-74
2022/12/28 02:40:22;;;;;;;1999.90;359.73;;;10.90;99.90;;;;;;5007607;28;20060;-83
2022/12/28 02:42:49;;;;;;;1999.90;472.63;;;11.20;99.90;;;;;;5022552;28;20060;-85
2022/12/28 02:51:24;;;;;;;1999.90;999.90;;;11.10;99.90;;;;;;5030472;28;20088;-76
2022/12/28 02:56:52;;;;;;;1049.32;96.25;;;11.00;99.90;;;;;;5176409;22;20026;-72
2022/12/28 02:59:40;;;;;;;1999.90;641.78;;;11.50;99.90;;;;;;5024038;28;20041;-72
2022/12/28 03:02:15;;;;;;;1999.90;620.80;;;11.50;99.90;;;;;;5018040;28;20474;-72
2022/12/28 03:05:10;;;;;;;1999.90;277.27;;;8.70;99.90;;;;;;5005463;28;20096;-73
2022/12/28 03:11:03;;;;;;;1999.90;513.42;;;10.20;99.90;;;;;;5030343;28;20111;-73
2022/12/28 03:13:56;;;;;;;1999.90;999.90;;;11.10;99.90;;;;;;5030742;28;20397;-72
2022/12/28 03:16:31;;;;;;;1999.90;999.90;;;9.80;99.90;;;;;;5023989;28;20119;-73
2022/12/28 03:33:02;;;;;;;1999.90;586.70;;;10.70;99.90;;;;;;5027517;28;20068;-73
2022/12/28 03:35:43;;;;;;;1999.90;620.70;;;11.90;99.90;;;;;;5012959;28;20053;-73
2022/12/28 03:38:25;;;;;;;1999.90;999.90;;;9.70;99.90;;;;;;5027642;28;20052;-72
2022/12/28 03:40:59;;;;;;;1974.85;790.72;;;12.20;99.90;;;;;;5030921;28;20462;-74
2022/12/28 03:43:41;;;;;;;1999.90;275.48;;;11.30;99.90;;;;;;5026946;28;20049;-73
2022/12/28 03:46:22;;;;;;;1999.90;999.90;;;11.70;99.90;;;;;;5032912;28;20044;-73
2022/12/28 03:48:49;;;;;;;1729.28;558.47;;;13.30;99.90;;;;;;5032358;28;20053;-73
2022/12/28 03:51:22;;;;;;;1999.90;999.90;;;11.40;99.90;;;;;;5032889;28;20064;-74
2022/12/28 03:53:48;;;;;;;1999.90;999.90;;;11.10;99.90;;;;;;5030027;28;20045;-73
2022/12/28 03:56:17;;;;;;;1162.82;513.40;;;11.50;99.90;;;;;;5031108;28;20067;-72
2022/12/28 03:58:43;;;;;;;1971.90;788.17;;;;;;;;;;5032187;28;20080;-73
2022/12/28 04:01:09;;;;;;;1858.93;784.15;;;11.50;99.90;;;;;;5032052;28;20046;-73
2022/12/28 04:03:35;;;;;;;1999.90;415.40;;;;;;;;;;5029709;28;20041;-75
2022/12/28 04:06:01;;;;;;;1999.90;999.90;;;13.40;99.90;;;;;;5028129;28;20046;-74
2022/12/28 04:08:27;;;;;;;1999.90;999.90;;;11.60;99.90;;;;;;5031233;28;20041;-73
2022/12/28 04:10:53;;;;;;;1999.90;336.33;;;15.50;99.90;;;;;;5031579;28;20052;-74
2022/12/28 04:13:19;;;;;;;1999.90;811.05;;;11.50;99.90;;;;;;5026644;28;20465;-74
2022/12/28 04:15:55;;;;;;;1651.35;766.30;;;11.50;99.90;;;;;;5027362;28;20044;-73
2022/12/28 04:18:21;;;;;;;1759.32;207.10;;;;;;;;;;5032182;28;20061;-73
2022/12/28 04:20:46;;;;;;;1999.90;999.90;;;11.90;99.90;;;;;;5032194;28;20076;-73
2022/12/28 04:23:12;;;;;;;1621.35;763.05;;;11.80;99.90;;;;;;5031301;28;20490;-73
2022/12/28 04:25:38;;;;;;;1999.90;999.90;;;11.90;99.90;;;;;;5030471;28;20045;-73
2022/12/28 04:28:03;;;;;;;1999.90;999.90;;;12.00;99.90;;;;;;5010767;28;20037;-73
2022/12/28 04:30:29;;;;;;;1999.90;999.90;;;12.00;99.90;;;;;;5028837;28;20068;-73
2022/12/28 04:32:55;;;;;;;1999.90;999.90;;;11.90;99.90;;;;;;5029527;28;20470;-74
2022/12/28 04:35:20;;;;;;;1999.90;999.90;;;10.80;99.90;;;;;;5027749;28;20037;-77
2022/12/28 04:37:46;;;;;;;1242.53;520.60;;;11.10;99.90;;;;;;5031264;28;20049;-71
2022/12/28 04:40:12;;;;;;;1999.90;829.95;;;12.30;99.90;;;;;;5005658;28;20077;-71
2022/12/28 04:42:38;;;;;;;1999.90;285.98;;;13.00;99.90;;;;;;5023855;28;20040;-71
2022/12/28 04:45:04;;;;;;;1999.90;999.90;;;11.70;99.90;;;;;;5022774;28;20143;-72
2022/12/28 04:47:30;;;;;;;1983.20;773.72;;;;;;;;;;5028478;28;20041;-72
2022/12/28 04:49:56;;;;;;;1832.78;566.95;;;12.80;99.90;;;;;;5025516;28;20069;-73
2022/12/28 04:52:21;;;;;;;1999.90;615.70;;;11.40;99.90;;;;;;5032438;28;20077;-73
2022/12/28 04:54:47;;;;;;;1999.90;999.90;;;9.70;99.90;;;;;;5026793;28;20192;-73
2022/12/28 04:57:14;;;;;;;1999.90;999.90;;;;;;;;;;5027592;28;20136;-80
2022/12/28 04:59:39;;;;;;;1969.35;562.75;;;11.80;99.90;;;;;;5028613;28;20041;-73
2022/12/28 05:02:06;;;;;;;1594.18;756.78;;;11.90;99.90;;;;;;5023428;28;20107;-73
2022/12/28 05:04:32;;;;;;;1999.90;999.90;;;10.60;99.90;;;;;;5025822;28;20094;-73
2022/12/28 05:06:57;;;;;;;1834.15;774.25;;;11.50;99.90;;;;;;5026040;28;20034;-72
2022/12/28 05:09:23;;;;;;;1999.90;646.85;;;11.70;99.90;;;;;;5024663;28;20146;-79
2022/12/28 05:11:49;;;;;;;1469.20;552.15;;;11.80;99.90;;;;;;5024776;28;20064;-74
2022/12/28 05:14:15;;;;;;;1999.90;999.90;;;11.70;99.90;;;;;;5022819;28;20369;-73
2022/12/28 05:16:41;;;;;;;1999.90;999.90;;;12.00;99.90;;;;;;5022576;28;20045;-73
2022/12/28 05:19:07;;;;;;;1610.53;760.28;;;11.90;99.90;;;;;;5026646;28;20033;-73
2022/12/28 05:21:32;;;;;;;1999.90;999.90;;;12.40;99.90;;;;;;5029838;28;20044;-73
2022/12/28 05:23:58;;;;;;;1999.90;487.27;;;12.00;99.90;;;;;;5030765;28;20125;-72
2022/12/28 05:26:27;;;;;;;1999.90;999.90;;;12.40;99.90;;;;;;5025470;28;20046;-72
2022/12/28 05:28:54;;;;;;;1999.90;999.90;;;11.80;99.90;;;;;;5021722;28;20045;-73
2022/12/28 05:31:21;;;;;;;1649.43;760.88;;;12.10;99.90;;;;;;5024703;28;20041;-74
2022/12/28 05:33:47;;;;;;;1999.90;617.92;;;12.50;99.90;;;;;;5031064;28;20087;-75
2022/12/28 05:36:18;;;;;;;1648.93;767.08;;;12.20;99.90;;;;;;5028463;28;20049;-73
2022/12/28 05:38:45;;;;;;;1999.90;999.90;;;12.60;99.90;;;;;;5026326;28;20089;-73
2022/12/28 05:41:21;;;;;;;1999.90;639.10;;;12.80;99.90;;;;;;5024576;28;20090;-73
2022/12/28 05:43:47;;;;;;;1999.90;609.63;;;15.40;99.90;;;;;;5024873;28;20037;-74
2022/12/28 05:46:18;;;;;;;1999.90;999.90;;;12.70;99.90;;;;;;5027673;28;21899;-73
2022/12/28 05:48:44;;;;;;;1999.90;999.90;;;12.80;99.90;;;;;;5029800;28;20046;-74
2022/12/28 05:51:18;;;;;;;1145.82;522.95;;;12.30;99.90;;;;;;5026655;28;20048;-76
2022/12/28 05:53:44;;;;;;;1999.90;285.95;;;13.00;99.90;;;;;;5028218;28;20081;-74
2022/12/28 05:56:12;;;;;;;1999.90;999.90;;;12.40;99.90;;;;;;5029846;28;20132;-75
2022/12/28 05:58:38;;;;;;;1999.90;999.90;;;12.30;99.90;;;;;;5027505;28;20049;-75
2022/12/28 06:01:06;;;;;;;1999.90;999.90;;;12.90;99.90;;;;;;5029833;28;20041;-81
2022/12/28 06:03:32;;;;;;;1999.90;999.90;;;12.90;99.90;;;;;;5024076;28;20045;-75
2022/12/28 06:06:02;;;;;;;1999.90;999.90;;;12.70;99.90;;;;;;5028484;28;20049;-75
2022/12/28 06:08:28;;;;;;;1999.90;999.90;;;12.70;99.90;;;;;;5023734;28;20058;-76
2022/12/28 06:10:57;;;;;;;1614.53;758.72;;;12.80;99.90;;;;;;5032843;28;20045;-76
2022/12/28 06:13:23;;;;;;;1999.90;999.90;;;12.40;99.90;;;;;;5031591;28;20642;-79
2022/12/28 06:15:49;;;;;;;1999.90;999.90;;;12.70;99.90;;;;;;5033520;28;20049;-75
2022/12/28 06:18:14;;;;;;;1274.60;515.72;;;12.80;99.90;;;;;;5032473;28;20080;-75
2022/12/28 06:20:40;;;;;;;1999.90;999.90;;;13.00;99.90;;;;;;5030567;28;20557;-74
2022/12/28 06:23:05;;;;;;;1999.90;999.90;;;13.10;99.90;;;;;;5035525;28;20042;-75
2022/12/28 06:25:31;;;;;;;1999.90;771.05;;;12.50;99.90;;;;;;5030878;28;20050;-76
2022/12/28 06:27:57;;;;;;;1813.72;767.22;;;13.10;99.90;;;;;;5032606;28;20512;-71
2022/12/28 06:30:22;;;;;;;1999.90;999.90;;;13.00;99.90;;;;;;5014775;28;20115;-72
2022/12/28 06:32:48;;;;;;;1999.90;999.90;;;12.90;99.90;;;;;;5038228;28;20060;-72
2022/12/28 06:35:14;;;;;;;1999.90;999.90;;;13.10;99.90;;;;;;5034908;28;20034;-72
2022/12/28 06:37:39;;;;;;;1999.90;999.90;;;13.10;99.90;;;;;;5036942;28;20125;-72
2022/12/28 06:40:06;;;;;;;1531.13;753.20;;;12.80;99.90;;;;;;5005603;28;20160;-73
2022/12/28 06:42:31;;;;;;;1999.90;999.90;;;12.70;99.90;;;;;;5037495;28;20049;-73
2022/12/28 06:44:57;;;;;;;1678.65;764.47;;;12.70;99.90;;;;;;5036893;28;20409;-72
2022/12/28 06:47:22;;;;;;;1999.90;999.90;;;13.20;99.90;;;;;;5032369;28;20053;-75
2022/12/28 06:49:48;;;;;;;1999.90;999.90;;;13.30;99.90;;;;;;5029022;28;20053;-73
2022/12/28 06:52:14;;;;;;;1999.90;999.90;;;13.80;99.90;;;;;;5035847;28;20037;-72
2022/12/28 06:54:39;;;;;;;1999.90;999.90;;;12.60;99.90;;;;;;5037192;28;20106;-72
2022/12/28 06:57:05;;;;;;;1999.90;999.90;;;13.10;99.90;;;;;;5033733;28;20136;-75
2022/12/28 06:59:31;;;;;;;1999.90;787.00;;;13.30;99.90;;;;;;5034088;28;20053;-72
2022/12/28 07:01:56;;;;;;;1999.90;999.90;;;13.30;99.90;;;;;;5017086;28;20502;-73
2022/12/28 07:04:23;;;;;;;1999.90;999.90;;;13.20;99.90;;;;;;5033297;28;20041;-72
2022/12/28 07:06:49;;;;;;;1999.90;999.90;;;13.30;99.90;;;;;;5035584;28;20099;-73
2022/12/28 07:09:15;;;;;;;1999.90;999.90;;;13.00;99.90;;;;;;5035212;28;20446;-73
2022/12/28 07:11:42;;;;;;;1999.90;999.90;;;;;;;;;;5037458;28;20045;-72
2022/12/28 07:14:08;;;;;;;1999.90;999.90;;;12.70;99.90;;;;;;5036828;28;20076;-75
2022/12/28 07:16:33;;;;;;;1999.90;999.90;;;12.80;99.90;;;;;;5031564;28;20065;-72
2022/12/28 07:18:59;;;;;;;1999.90;999.90;;;13.40;99.90;;;;;;5035425;28;20050;-73
2022/12/28 07:21:28;;;;;;;1893.85;810.40;;;13.40;99.90;;;;;;5030278;28;20390;-73
2022/12/28 07:23:55;;;;;;;1804.45;561.38;;;12.80;99.90;;;;;;5035100;28;20398;-72
2022/12/28 07:26:27;;;;;;;1999.90;999.90;;;13.40;99.90;;;;;;5032197;28;20145;-72
2022/12/28 07:28:54;;;;;;;1999.90;999.90;;;12.80;99.90;;;;;;5028664;28;20087;-73
2022/12/28 07:31:23;;;;;;;1999.90;999.90;;;13.20;99.90;;;;;;5017285;28;20394;-73
2022/12/28 07:33:50;;;;;;;1999.90;999.90;;;13.40;99.90;;;;;;4997506;28;20076;-72
2022/12/28 07:36:18;;;;;;;1999.90;999.90;;;13.00;99.90;;;;;;5028621;28;20111;-73
2022/12/28 07:38:44;;;;;;;1999.90;635.38;;;13.20;99.90;;;;;;5029677;28;20057;-74
2022/12/28 07:41:13;;;;;;;1999.90;999.90;;;13.00;99.90;;;;;;5027570;28;20107;-79
2022/12/28 07:43:39;;;;;;;1999.90;565.65;;;13.60;99.90;;;;;;5030953;28;20046;-73
2022/12/28 07:46:21;;;;;;;1999.90;999.90;;;13.40;99.90;;;;;;5030543;28;20047;-72
2022/12/28 07:48:47;;;;;;;1999.90;999.90;;;13.60;99.90;;;;;;5033951;28;20053;-73
2022/12/28 07:51:17;;;;;;;1999.90;439.52;;;13.50;99.90;;;;;;5028196;28;20045;-73
2022/12/28 07:53:44;;;;;;;1999.90;999.90;;;13.20;99.90;;;;;;5016569;28;20041;-73
2022/12/28 07:56:11;;;;;;;1999.90;999.90;;;13.00;99.90;;;;;;5028064;28;20095;-73
2022/12/28 07:58:37;;;;;;;1999.90;413.20;;;13.60;99.90;;;;;;5034340;28;20459;-72
2022/12/28 08:01:14;;;;;;;1999.90;999.90;;;13.00;99.90;;;;;;5028797;28;20037;-75
2022/12/28 08:03:40;;;;;;;1999.90;999.90;;;13.60;99.90;;;;;;5021390;28;20508;-75
2022/12/28 08:06:12;;;;;;;1999.90;562.10;;;13.20;99.90;;;;;;5014692;28;20046;-74
2022/12/28 08:08:40;;;;;;;1999.90;999.90;;;13.50;99.90;;;;;;5030350;28;20556;-73
2022/12/28 08:11:09;;;;;;;1999.90;999.90;;;13.50;99.90;;;;;;5030215;28;20478;-72
2022/12/28 08:13:37;;;;;;;1999.90;999.90;;;13.10;99.90;;;;;;5029958;28;20073;-73
2022/12/28 08:16:04;;;;;;;1999.90;595.10;;;13.60;99.90;;;;;;5030038;28;20037;-73
2022/12/28 08:18:30;;;;;;;1999.90;999.90;;;13.20;99.90;;;;;;5021636;28;20540;-74
2022/12/28 08:21:04;;;;;;;1645.57;137.05;;;13.50;99.90;;;;;;4998310;28;20052;-72
2022/12/28 08:23:31;;;;;;;1999.90;999.90;;;13.60;99.90;;;;;;5031585;28;20107;-73
2022/12/28 08:26:08;;;;;;;1999.90;999.90;;;13.70;99.90;;;;;;5013551;28;20045;-73
2022/12/28 08:28:34;;;;;;;1999.90;999.90;;;13.20;99.90;;;;;;5019386;28;20497;-72
2022/12/28 08:31:12;;;;;;;1999.90;999.90;;;13.70;99.90;;;;;;5032209;28;20116;-73
2022/12/28 08:33:38;;;;;;;1999.90;999.90;;;13.20;99.90;;;;;;5031740;28;20053;-72
2022/12/28 08:36:05;;;;;;;1999.90;378.65;;;13.20;99.90;;;;;;5028699;28;20045;-72
2022/12/28 08:38:31;;;;;;;1999.90;999.90;;;13.70;99.90;;;;;;5030415;28;20128;-72
2022/12/28 08:40:59;;;;;;;1999.90;999.90;;;13.80;99.90;;;;;;5029786;28;20046;-72
2022/12/28 08:43:27;;;;;;;1999.90;999.90;;;13.80;99.90;;;;;;5032256;28;20050;-72
2022/12/28 08:46:04;;;;;;;1999.90;999.90;;;13.30;99.90;;;;;;5029610;28;20049;-72
2022/12/28 08:48:30;;;;;;;1999.90;999.90;;;13.80;99.90;;;;;;5031388;28;20449;-73
2022/12/28 08:51:05;;;;;;;1999.90;652.25;;;13.30;99.90;;;;;;5007917;28;20045;-72
2022/12/28 08:53:31;;;;;;;1999.90;999.90;;;13.30;99.90;;;;;;5029669;28;20049;-76
2022/12/28 08:56:24;;;;;;;1692.85;764.58;;;13.80;99.90;;;;;;5028404;28;20124;-72
2022/12/28 08:58:50;;;;;;;1999.90;999.90;;;13.70;99.90;;;;;;5030576;28;20155;-72
2022/12/28 09:01:23;;;;;;;1999.90;999.90;;;13.90;99.90;;;;;;5031397;28;20041;-72
2022/12/28 09:03:51;;;;;;;1999.90;999.90;;;13.70;99.90;;;;;;5032922;28;20049;-72
2022/12/28 09:06:19;;;;;;;;;;;13.50;99.90;;;;;;5031046;28;20112;-72
2022/12/28 09:08:48;;;;;;;1999.90;999.90;;;13.80;99.90;;;;;;5031666;28;19987;-72
2022/12/28 09:11:14;;;;;;;1999.90;999.90;;;13.40;99.90;;;;;;5030594;28;20045;-73
2022/12/28 09:13:40;;;;;;;1999.90;999.90;;;13.30;99.90;;;;;;5032108;28;20115;-73
2022/12/28 09:16:08;;;;;;;1854.15;161.18;;;13.50;99.90;;;;;;5024767;28;20052;-73
2022/12/28 09:18:35;;;;;;;1999.90;999.90;;;13.90;99.90;;;;;;5029471;28;20086;-72
2022/12/28 09:21:05;;;;;;;1999.90;999.90;;;13.30;99.90;;;;;;5030260;28;20129;-80
2022/12/28 09:23:31;;;;;;;1999.90;999.90;;;13.90;99.90;;;;;;5029714;28;20494;-73
2022/12/28 09:26:03;;;;;;;1999.90;999.90;;;13.50;99.90;;;;;;5025591;28;20628;-72
2022/12/28 09:28:29;;;;;;;1999.90;999.90;;;13.40;99.90;;;;;;5027310;28;20116;-73
2022/12/28 09:30:54;;;;;;;1999.90;999.90;;;13.50;99.90;;;;;;5031431;28;20522;-76
2022/12/28 09:36:04;;;;;;;1999.90;999.90;;;14.00;99.90;;;;;;5025301;28;20057;-73
2022/12/28 09:38:30;;;;;;;1646.57;527.80;;;13.50;99.90;;;;;;5030912;28;20053;-73
2022/12/28 09:40:57;;;;;;;1999.90;999.90;;;13.50;99.90;;;;;;5013879;28;20120;-74
2022/12/28 09:43:25;;;;;;;1999.90;999.90;;;13.50;99.90;;;;;;5028229;28;20107;-73
2022/12/28 09:45:53;;;;;;;1999.90;345.45;;;13.50;99.90;;;;;;5029252;28;20041;-73
2022/12/28 09:48:21;;;;;;;1999.90;999.90;;;13.90;99.90;;;;;;5027727;28;20049;-78
2022/12/28 09:50:49;;;;;;;1999.90;999.90;;;13.30;99.90;;;;;;5030084;28;20045;-73
2022/12/28 09:53:33;;;;;;;1999.90;999.90;;;14.10;99.90;;;;;;5026327;28;20486;-73
2022/12/28 09:56:17;;;;;;;1999.90;999.90;;;14.00;99.90;;;;;;5028209;28;20452;-73
2022/12/28 09:58:44;;;;;;;1999.90;999.90;;;14.00;99.90;;;;;;5028958;28;20049;-73
2022/12/28 10:01:13;;;;;;;1999.90;999.90;;;14.10;99.90;;;;;;5028516;28;20285;-72
2022/12/28 10:03:41;;;;;;;1999.90;999.90;;;14.00;99.90;;;;;;5028982;28;20054;-73
2022/12/28 10:06:12;;;;;;;1999.90;999.90;;;13.70;99.90;;;;;;5028676;28;20041;-72
2022/12/28 10:08:44;;;;;;;1999.90;999.90;;;13.70;99.90;;;;;;5029187;28;20041;-72
2022/12/28 10:11:22;;;;;;;1999.90;714.03;;;14.00;99.90;;;;;;5028429;28;20045;-73
2022/12/28 10:13:55;;;;;;;1999.90;999.90;;;14.00;99.90;;;;;;5029320;28;20041;-73
2022/12/28 10:16:22;;;;;;;1973.88;354.17;;;13.80;99.90;;;;;;5029919;28;20119;-73
2022/12/28 10:18:49;;;;;;;1999.90;999.90;;;13.90;99.90;;;;;;5026929;28;20041;-73
2022/12/28 10:21:19;;;;;;;1999.90;999.90;;;14.10;99.90;;;;;;5030327;28;20107;-73
2022/12/28 10:23:48;;;;;;;1999.90;512.45;;;14.00;99.90;;;;;;5027906;28;20058;-72
2022/12/28 10:26:19;;;;;;;1999.90;628.22;;;14.20;99.90;;;;;;5028959;28;20107;-73
2022/12/28 10:28:53;;;;;;;1999.90;999.90;;;14.00;99.90;;;;;;5025943;28;20053;-73
2022/12/28 10:31:33;;;;;;;1999.90;999.90;;;13.90;99.90;;;;;;5030891;28;20057;-72
2022/12/28 10:34:00;;;;;;;1999.90;999.90;;;14.30;99.90;;;;;;5029806;28;20044;-72
2022/12/28 10:36:31;;;;;;;1889.55;768.58;;;13.80;99.90;;;;;;5028156;28;20125;-72
2022/12/28 10:38:57;;;;;;;1999.90;861.85;;;14.10;99.90;;;;;;5027381;28;20041;-72
2022/12/28 10:41:32;;;;;;;1999.90;999.90;;;14.20;99.90;;;;;;5031901;28;20041;-73
2022/12/28 10:43:58;;;;;;;1999.90;999.90;;;14.20;99.90;;;;;;5025373;28;20033;-75
2022/12/28 10:46:24;;;;;;;1999.90;408.40;;;14.30;99.90;;;;;;5023585;28;20117;-72
2022/12/28 10:48:58;;;;;;;1973.38;339.67;;;13.90;99.90;;;;;;5008163;28;20049;-72
2022/12/28 10:51:26;;;;;;;1999.90;999.90;;;14.10;99.90;;;;;;5031606;28;20043;-71
2022/12/28 10:53:57;;;;;;;1999.90;999.90;;;13.90;99.90;;;;;;5028767;28;20041;-72
2022/12/28 10:56:31;;;;;;;1999.90;798.00;;;14.20;99.90;;;;;;5024392;28;20486;-73
2022/12/28 10:59:09;;;;;;;1999.90;999.90;;;14.20;99.90;;;;;;5029883;28;20089;-73
2022/12/28 11:01:35;;;;;;;1999.90;999.90;;;14.30;99.90;;;;;;5027199;28;20083;-74
2022/12/28 11:04:05;;;;;;;1999.90;999.90;;;14.20;99.90;;;;;;5028777;28;20045;-73
2022/12/28 11:06:51;;;;;;;1999.90;999.90;;;13.80;99.90;;;;;;5031768;28;20053;-73
2022/12/28 11:09:34;;;;;;;1999.90;999.90;;;14.30;99.90;;;;;;5030701;28;20403;-72
2022/12/28 11:12:32;;;;;;;1999.90;999.90;;;13.90;99.90;;;;;;5033524;28;20045;-74
2022/12/28 11:14:58;;;;;;;1999.90;999.90;;;13.90;99.90;;;;;;5015647;28;20045;-72
2022/12/28 11:17:26;;;;;;;1999.90;784.08;;;14.20;99.90;;;;;;5032223;28;20099;-75
2022/12/28 11:20:02;;;;;;;1999.90;346.25;;;13.90;99.90;;;;;;5031859;28;20037;-77
2022/12/28 11:22:29;;;;;;;1999.90;999.90;;;14.10;99.90;;;;;;5034486;28;20041;-72
2022/12/28 11:24:57;;;;;;;1999.90;999.90;;;14.40;99.90;;;;;;5030325;28;20033;-72
2022/12/28 11:27:24;;;;;;;1999.90;999.90;;;13.90;99.90;;;;;;5028372;28;20373;-72
2022/12/28 11:29:52;;;;;;;1763.00;768.33;;;13.90;99.90;;;;;;5031383;28;20049;-73
2022/12/28 11:32:21;;;;;;;;;;;14.00;99.90;;;;;;5032309;28;20041;-73
2022/12/28 11:34:48;;;;;;;1999.90;999.90;;;14.00;99.90;;;;;;5031053;28;19929;-73
2022/12/28 11:37:14;;;;;;;1999.90;999.90;;;14.40;99.90;;;;;;5031843;28;20044;-72
2022/12/28 11:39:48;;;;;;;1999.90;999.90;;;14.00;99.90;;;;;;5032463;28;20116;-73
2022/12/28 11:42:34;;;;;;;1999.90;999.90;;;14.10;99.90;;;;;;5030244;28;20042;-72
2022/12/28 11:45:14;;;;;;;1999.90;999.90;;;14.40;99.90;;;;;;5032768;28;20084;-78
2022/12/28 11:47:40;;;;;;;1999.90;999.90;;;14.00;99.90;;;;;;5033918;28;20150;-73
2022/12/28 11:50:37;;;;;;;1611.18;571.55;;;14.40;99.90;;;;;;5030323;28;20065;-72
2022/12/28 11:53:18;;;;;;;1999.90;999.90;;;13.90;99.90;;;;;;5022854;28;20057;-72
2022/12/28 11:56:03;;;;;;;1999.90;999.90;;;13.90;99.90;;;;;;5030933;28;20788;-78
2022/12/28 11:58:28;;;;;;;1999.90;999.90;;;13.90;99.90;;;;;;5026028;28;20432;-72
2022/12/28 12:00:55;;;;;;;1999.90;999.90;;;14.10;99.90;;;;;;5031247;28;20045;-73
2022/12/28 12:03:56;;;;;;;1999.90;999.90;;;14.40;99.90;;;;;;5024101;28;20066;-72
2022/12/28 12:06:52;;;;;;;1999.90;999.90;;;13.90;99.90;;;;;;5019918;28;20052;-72
2022/12/28 12:09:21;;;;;;;1999.90;999.90;;;14.30;99.90;;;;;;5014841;28;20071;-73
2022/12/28 12:11:48;;;;;;;1999.90;999.90;;;13.90;99.90;;;;;;5026551;28;20154;-78
2022/12/28 12:14:36;;;;;;;1999.90;999.90;;;13.90;99.90;;;;;;5030856;28;20087;-72
2022/12/28 12:17:10;;;;;;;1999.90;999.90;;;14.20;99.90;;;;;;5037168;28;20045;-71
2022/12/28 12:19:40;;;;;;;1999.90;999.90;;;14.30;99.90;;;;;;5043259;28;20041;-72
2022/12/28 12:22:28;;;;;;;1999.90;384.80;;;14.20;99.90;;;;;;5038637;28;20478;-72
2022/12/28 12:25:01;;;;;;;1999.90;999.90;;;13.90;99.90;;;;;;5022529;28;20050;-75
2022/12/28 12:27:35;;;;;;;1999.90;999.90;;;14.30;99.90;;;;;;5039823;28;20092;-72
2022/12/28 12:30:15;;;;;;;1999.90;582.70;;;13.90;99.90;;;;;;5028968;28;20038;-70
2022/12/28 12:32:51;;;;;;;1999.90;999.90;;;13.90;99.90;;;;;;5036858;28;20053;-72
2022/12/28 12:35:25;;;;;;;1999.90;999.90;;;13.90;99.90;;;;;;5029583;28;20489;-72
2022/12/28 12:38:29;;;;;;;1167.03;509.15;;;14.30;99.90;;;;;;5031162;28;20049;-72
2022/12/28 12:41:26;;;;;;;1999.90;999.90;;;14.00;99.90;;;;;;4971171;28;20121;-72
2022/12/28 12:43:57;;;;;;;1999.90;999.90;;;14.20;99.90;;;;;;5028690;28;20045;-73
2022/12/28 12:46:39;;;;;;;1999.90;999.90;;;13.90;99.90;;;;;;5030406;28;20124;-72